Time;durP1;ratioP1;P1;durP2;ratioP2;P2;SDS_P1;SDS_P2;PMS_P1;PMS_P2;Temp;Humidity;BMP_temperature;BMP_pressure;BME280_temperature;BME280_humidity;BME280_pressure;Samples;Min_cycle;Max_cycle;Signal;HPM_P1;HPM_P2
2021/07/26 00:02:18;;;;;;;;;;;;;;;;;;5025543;28;1177;-53
2021/07/26 00:04:43;;;;;;;;;;;;;;;;;;5022327;28;1723;-52
2021/07/26 00:07:09;;;;;;;;;;;;;;;;;;5024522;28;1122;-55
2021/07/26 00:09:34;;;;;;;;;;;;;;;;;;5022879;28;1170;-53
2021/07/26 00:11:59;;;;;;;;;;;;;;;;;;5021794;28;1565;-55
2021/07/26 00:14:24;;;;;;;;;;;;;;;;;;5024747;28;1300;-53
2021/07/26 00:16:50;;;;;;;;;;;;;;;;;;5024491;28;1898;-54
2021/07/26 00:19:15;;;;;;;;;;;;;;;;;;5021923;28;1573;-53
2021/07/26 00:21:40;;;;;;;;;;;;;;;;;;5023230;28;1232;-54
2021/07/26 00:24:05;;;;;;;;;;;;;;;;;;5026063;28;1130;-54
2021/07/26 00:26:30;;;;;;;;;;;;;;;;;;5019963;28;1537;-54
2021/07/26 00:28:56;;;;;;;;;;;;;;;;;;5025819;28;1161;-55
2021/07/26 00:31:21;;;;;;;;;;;;;;;;;;5020746;28;1176;-54
2021/07/26 00:34:06;;;;;;;;;;;;;;;;;;5021193;28;1645;-55
2021/07/26 00:36:32;;;;;;;;;;;;;;;;;;5024776;28;1369;-54
2021/07/26 00:38:57;;;;;;;;;;;;;;;;;;5022708;28;1910;-55
2021/07/26 00:41:22;;;;;;;;;;;;;;;;;;5022514;28;2000;-55
2021/07/26 00:43:47;;;;;;;;;;;;;;;;;;5019228;28;1581;-54
2021/07/26 00:46:13;;;;;;;;;;;;;;;;;;5019452;28;1287;-55
2021/07/26 00:48:38;;;;;;;;;;;;;;;;;;5019185;28;1494;-55
2021/07/26 00:51:03;;;;;;;;;;;;;;;;;;5019403;28;1488;-55
2021/07/26 00:53:28;;;;;;;;;;;;;;;;;;5019589;28;1184;-53
2021/07/26 00:55:54;;;;;;;;;;;;;;;;;;5024238;28;1570;-52
2021/07/26 00:58:19;;;;;;;;;;;;;;;;;;5009685;28;1914;-54
2021/07/26 01:00:44;;;;;;;;;;;;;;;;;;5006816;28;1353;-55
2021/07/26 01:03:09;;;;;;;;;;;;;;;;;;5021105;28;1299;-52
2021/07/26 01:05:34;;;;;;;;;;;;;;;;;;5021561;28;1590;-54
2021/07/26 01:08:00;;;;;;;;;;;;;;;;;;5017798;28;1703;-55
2021/07/26 01:10:25;;;;;;;;;;;;;;;;;;5019970;28;1574;-55
2021/07/26 01:12:51;;;;;;;;;;;;;;;;;;5018031;28;1463;-55
2021/07/26 01:15:16;;;;;;;;;;;;;;;;;;5023999;28;1298;-54
2021/07/26 01:18:07;;;;;;;;;;;;;;;;;;5010674;28;1974;-54
2021/07/26 01:20:32;;;;;;;;;;;;;;;;;;5019187;28;1586;-54
2021/07/26 01:22:58;;;;;;;;;;;;;;;;;;5019519;28;1711;-55
2021/07/26 01:25:23;;;;;;;;;;;;;;;;;;5024452;28;1621;-52
2021/07/26 01:27:48;;;;;;;;;;;;;;;;;;5020183;28;1326;-53
2021/07/26 01:30:13;;;;;;;;;;;;;;;;;;5023932;28;1014;-54
2021/07/26 01:32:38;;;;;;;;;;;;;;;;;;5020351;28;1074;-54
2021/07/26 01:35:04;;;;;;;;;;;;;;;;;;5022996;28;1625;-54
2021/07/26 01:37:29;;;;;;;;;;;;;;;;;;5023533;28;1957;-54
2021/07/26 01:39:54;;;;;;;;;;;;;;;;;;5018864;28;1537;-55
2021/07/26 01:42:19;;;;;;;;;;;;;;;;;;5021334;28;1292;-54
2021/07/26 01:44:44;;;;;;;;;;;;;;;;;;5021885;28;1406;-53
2021/07/26 01:47:09;;;;;;;;;;;;;;;;;;5024044;28;1170;-55
2021/07/26 01:49:36;;;;;;;;;;;;;;;;;;5021057;28;1537;-55
2021/07/26 01:52:01;;;;;;;;;;;;;;;;;;5010814;28;1467;-55
2021/07/26 01:54:26;;;;;;;;;;;;;;;;;;5018200;28;1406;-54
2021/07/26 01:56:51;;;;;;;;;;;;;;;;;;5021356;28;1902;-54
2021/07/26 01:59:17;;;;;;;;;;;;;;;;;;5019036;28;995;-52
2021/07/26 02:01:42;;;;;;;;;;;;;;;;;;5007203;28;1390;-55
2021/07/26 02:04:07;;;;;;;;;;;;;;;;;;5020354;28;1534;-55
2021/07/26 02:06:32;;;;;;;;;;;;;;;;;;5021778;28;1286;-54
2021/07/26 02:08:57;;;;;;;;;;;;;;;;;;5020602;28;1236;-54
2021/07/26 02:11:23;;;;;;;;;;;;;;;;;;5021015;28;1578;-55
2021/07/26 02:13:48;;;;;;;;;;;;;;;;;;5024130;28;1260;-53
2021/07/26 02:16:13;;;;;;;;;;;;;;;;;;5022069;28;1307;-54
2021/07/26 02:18:39;;;;;;;;;;;;;;;;;;5018143;28;1938;-55
2021/07/26 02:21:04;;;;;;;;;;;;;;;;;;5022700;28;1299;-55
2021/07/26 02:23:29;;;;;;;;;;;;;;;;;;5023740;28;1130;-54
2021/07/26 02:25:54;;;;;;;;;;;;;;;;;;5023804;28;1569;-55
2021/07/26 02:28:20;;;;;;;;;;;;;;;;;;5024451;28;1674;-56
2021/07/26 02:30:45;;;;;;;;;;;;;;;;;;5022548;28;1304;-54
2021/07/26 02:33:10;;;;;;;;;;;;;;;;;;5022498;28;1366;-56
2021/07/26 02:35:35;;;;;;;;;;;;;;;;;;5026231;28;1654;-54
2021/07/26 02:38:01;;;;;;;;;;;;;;;;;;5022922;28;1965;-53
2021/07/26 02:40:27;;;;;;;;;;;;;;;;;;5026217;28;1578;-53
2021/07/26 02:42:53;;;;;;;;;;;;;;;;;;5022767;28;1240;-55
2021/07/26 02:45:18;;;;;;;;;;;;;;;;;;5028317;28;1566;-55
2021/07/26 02:47:43;;;;;;;;;;;;;;;;;;5024669;28;1201;-54
2021/07/26 02:50:08;;;;;;;;;;;;;;;;;;5024023;28;1240;-55
2021/07/26 02:52:34;;;;;;;;;;;;;;;;;;5026069;28;1598;-55
2021/07/26 02:54:59;;;;;;;;;;;;;;;;;;5021968;28;1629;-54
2021/07/26 02:57:24;;;;;;;;;;;;;;;;;;5027471;28;1956;-54
2021/07/26 02:59:49;;;;;;;;;;;;;;;;;;5023243;28;1149;-55
2021/07/26 03:02:14;;;;;;;;;;;;;;;;;;5022527;28;1153;-54
2021/07/26 03:04:40;;;;;;;;;;;;;;;;;;5023531;28;1604;-53
2021/07/26 03:07:05;;;;;;;;;;;;;;;;;;5027787;28;1578;-53
2021/07/26 03:09:30;;;;;;;;;;;;;;;;;;5022535;28;1154;-55
2021/07/26 03:11:55;;;;;;;;;;;;;;;;;;5026307;28;1546;-52
2021/07/26 03:14:20;;;;;;;;;;;;;;;;;;5025049;28;1409;-55
2021/07/26 03:16:46;;;;;;;;;;;;;;;;;;5021311;28;1565;-54
2021/07/26 03:19:11;;;;;;;;;;;;;;;;;;5024298;28;1906;-55
2021/07/26 03:21:37;;;;;;;;;;;;;;;;;;5024329;28;1149;-54
2021/07/26 03:24:02;;;;;;;;;;;;;;;;;;5021085;28;1142;-55
2021/07/26 03:26:27;;;;;;;;;;;;;;;;;;5021542;28;1895;-52
2021/07/26 03:28:52;;;;;;;;;;;;;;;;;;5022308;28;1245;-54
2021/07/26 03:31:18;;;;;;;;;;;;;;;;;;5021717;28;1232;-53
2021/07/26 03:33:44;;;;;;;;;;;;;;;;;;5024614;28;1185;-54
2021/07/26 03:36:10;;;;;;;;;;;;;;;;;;5022271;28;1589;-55
2021/07/26 03:38:36;;;;;;;;;;;;;;;;;;5026648;28;1905;-55
2021/07/26 03:41:01;;;;;;;;;;;;;;;;;;5024267;28;1638;-55
2021/07/26 03:43:27;;;;;;;;;;;;;;;;;;5026470;28;1158;-53
2021/07/26 03:45:52;;;;;;;;;;;;;;;;;;5023474;28;1365;-54
2021/07/26 03:48:17;;;;;;;;;;;;;;;;;;5024580;28;1697;-55
2021/07/26 03:50:42;;;;;;;;;;;;;;;;;;5025896;28;1308;-54
2021/07/26 03:53:08;;;;;;;;;;;;;;;;;;5024561;28;1212;-55
2021/07/26 03:55:33;;;;;;;;;;;;;;;;;;5020902;28;1684;-55
2021/07/26 03:57:59;;;;;;;;;;;;;;;;;;5024792;28;1959;-55
2021/07/26 04:00:25;;;;;;;;;;;;;;;;;;5021308;28;1311;-55
2021/07/26 04:02:57;;;;;;;;;;;;;;;;;;5025414;28;1283;-54
2021/07/26 04:05:29;;;;;;;;;;;;;;;;;;5020859;28;1566;-55
2021/07/26 04:07:54;;;;;;;;;;;;;;;;;;5023573;28;1024;-55
2021/07/26 04:10:19;;;;;;;;;;;;;;;;;;5021194;28;1509;-52
2021/07/26 04:12:49;;;;;;;;;;;;;;;;;;5020349;28;1537;-53
2021/07/26 04:15:14;;;;;;;;;;;;;;;;;;5024842;28;1286;-56
2021/07/26 04:17:39;;;;;;;;;;;;;;;;;;5020283;28;1918;-54
2021/07/26 04:20:05;;;;;;;;;;;;;;;;;;5024359;28;1186;-54
2021/07/26 04:22:30;;;;;;;;;;;;;;;;;;5019044;28;1718;-53
2021/07/26 04:24:55;;;;;;;;;;;;;;;;;;5024297;28;1573;-54
2021/07/26 04:27:20;;;;;;;;;;;;;;;;;;5024047;28;1213;-53
2021/07/26 04:29:45;;;;;;;;;;;;;;;;;;5020314;28;1153;-54
2021/07/26 04:32:11;;;;;;;;;;;;;;;;;;5022277;28;1359;-53
2021/07/26 04:34:37;;;;;;;;;;;;;;;;;;5024504;28;1556;-55
2021/07/26 04:37:02;;;;;;;;;;;;;;;;;;5022129;28;1902;-54
2021/07/26 04:39:27;;;;;;;;;;;;;;;;;;5019454;28;1186;-52
2021/07/26 04:41:52;;;;;;;;;;;;;;;;;;5019925;28;1572;-53
2021/07/26 04:44:17;;;;;;;;;;;;;;;;;;5019999;28;1170;-54
2021/07/26 04:46:43;;;;;;;;;;;;;;;;;;5024234;28;1626;-54
2021/07/26 04:49:08;;;;;;;;;;;;;;;;;;5025848;28;1598;-54
2021/07/26 04:51:33;;;;;;;;;;;;;;;;;;5019823;28;1240;-54
2021/07/26 04:53:59;;;;;;;;;;;;;;;;;;5023729;28;1585;-54
2021/07/26 04:56:24;;;;;;;;;;;;;;;;;;5021057;28;1609;-53
2021/07/26 04:58:49;;;;;;;;;;;;;;;;;;5020155;28;1901;-54
2021/07/26 05:01:14;;;;;;;;;;;;;;;;;;5022076;28;1327;-55
2021/07/26 05:03:39;;;;;;;;;;;;;;;;;;5020470;28;1137;-54
2021/07/26 05:06:05;;;;;;;;;;;;;;;;;;5024934;28;1710;-55
2021/07/26 05:08:30;;;;;;;;;;;;;;;;;;5020847;28;1177;-55
2021/07/26 05:10:56;;;;;;;;;;;;;;;;;;5010408;28;1575;-54
2021/07/26 05:13:21;;;;;;;;;;;;;;;;;;5024499;28;1217;-55
2021/07/26 05:15:46;;;;;;;;;;;;;;;;;;5027065;23;1558;-93
2021/07/26 05:18:11;;;;;;;;;;;;;;;;;;4991476;28;1910;-93
2021/07/26 05:20:36;;;;;;;;;;;;;;;;;;4980708;28;1467;-93
2021/07/26 05:23:06;;;;;;;;;;;;;;;;;;4984899;28;1641;-93
2021/07/26 05:25:31;;;;;;;;;;;;;;;;;;4983847;28;1571;-93
2021/07/26 05:27:57;;;;;;;;;;;;;;;;;;4989739;28;1512;-93
2021/07/26 05:30:22;;;;;;;;;;;;;;;;;;4994859;28;1245;-94
2021/07/26 05:32:48;;;;;;;;;;;;;;;;;;4989319;28;1151;-93
2021/07/26 05:35:13;;;;;;;;;;;;;;;;;;4973710;28;1595;-94
2021/07/26 05:37:38;;;;;;;;;;;;;;;;;;4982499;28;1964;-95
2021/07/26 05:40:03;;;;;;;;;;;;;;;;;;4976151;28;1667;-94
2021/07/26 05:42:29;;;;;;;;;;;;;;;;;;4990776;28;1226;-94
2021/07/26 05:44:56;;;;;;;;;;;;;;;;;;4987012;28;1206;-94
2021/07/26 05:47:21;;;;;;;;;;;;;;;;;;4990889;28;1042;-94
2021/07/26 05:49:46;;;;;;;;;;;;;;;;;;4986036;28;1621;-93
2021/07/26 05:52:11;;;;;;;;;;;;;;;;;;4973643;28;1177;-94
2021/07/26 05:54:37;;;;;;;;;;;;;;;;;;4978555;28;1299;-94
2021/07/26 05:57:08;;;;;;;;;;;;;;;;;;4992285;28;1907;-93
2021/07/26 05:59:33;;;;;;;;;;;;;;;;;;4978052;28;1322;-94
2021/07/26 06:01:59;;;;;;;;;;;;;;;;;;4979743;28;1339;-94
2021/07/26 06:04:24;;;;;;;;;;;;;;;;;;4987139;28;1246;-93
2021/07/26 06:06:50;;;;;;;;;;;;;;;;;;4993246;28;1690;-93
2021/07/26 06:09:15;;;;;;;;;;;;;;;;;;4985545;28;1501;-93
2021/07/26 06:11:40;;;;;;;;;;;;;;;;;;4987293;28;1516;-93
2021/07/26 06:14:06;;;;;;;;;;;;;;;;;;4990565;28;1559;-94
2021/07/26 06:16:31;;;;;;;;;;;;;;;;;;4984830;28;1214;-93
2021/07/26 06:18:57;;;;;;;;;;;;;;;;;;4986530;28;1971;-93
2021/07/26 06:21:22;;;;;;;;;;;;;;;;;;4987179;28;1293;-93
2021/07/26 06:23:47;;;;;;;;;;;;;;;;;;4976546;28;1340;-93
2021/07/26 06:26:12;;;;;;;;;;;;;;;;;;4987420;28;1567;-93
2021/07/26 06:28:37;;;;;;;;;;;;;;;;;;4976277;28;1385;-93
2021/07/26 06:31:03;;;;;;;;;;;;;;;;;;4995806;28;1170;-91
2021/07/26 06:33:29;;;;;;;;;;;;;;;;;;4972611;28;1629;-91
2021/07/26 06:35:54;;;;;;;;;;;;;;;;;;4992262;28;1039;-89
2021/07/26 06:38:19;;;;;;;;;;;;;;;;;;4983773;28;1906;-90
2021/07/26 06:40:44;;;;;;;;;;;;;;;;;;4992424;28;1568;-90
2021/07/26 06:43:09;;;;;;;;;;;;;;;;;;4988639;28;1171;-91
2021/07/26 06:45:35;;;;;;;;;;;;;;;;;;4992577;28;1463;-90
2021/07/26 06:48:00;;;;;;;;;;;;;;;;;;4994966;28;1241;-90
2021/07/26 06:50:25;;;;;;;;;;;;;;;;;;4991853;28;1732;-91
2021/07/26 06:52:50;;;;;;;;;;;;;;;;;;4991455;28;1253;-91
2021/07/26 06:55:15;;;;;;;;;;;;;;;;;;4990902;28;1450;-91
2021/07/26 06:57:41;;;;;;;;;;;;;;;;;;4982250;28;1902;-91
2021/07/26 07:00:06;;;;;;;;;;;;;;;;;;4987952;28;1301;-90
2021/07/26 07:02:32;;;;;;;;;;;;;;;;;;4985047;28;1265;-90
2021/07/26 07:04:57;;;;;;;;;;;;;;;;;;4985100;28;1230;-91
2021/07/26 07:07:22;;;;;;;;;;;;;;;;;;4984558;28;1693;-91
2021/07/26 07:09:47;;;;;;;;;;;;;;;;;;4974668;28;1809;-90
2021/07/26 07:12:18;;;;;;;;;;;;;;;;;;4990365;28;1748;-90
2021/07/26 07:14:44;;;;;;;;;;;;;;;;;;4984325;28;1111;-90
2021/07/26 07:17:09;;;;;;;;;;;;;;;;;;4987473;28;1988;-90
2021/07/26 07:19:37;;;;;;;;;;;;;;;;;;4984209;28;1568;-90
2021/07/26 07:22:02;;;;;;;;;;;;;;;;;;4983862;28;1580;-90
2021/07/26 07:24:27;;;;;;;;;;;;;;;;;;4984571;28;1162;-89
2021/07/26 07:26:52;;;;;;;;;;;;;;;;;;4988552;28;1573;-90
2021/07/26 07:29:17;;;;;;;;;;;;;;;;;;4976265;28;1280;-90
2021/07/26 07:31:43;;;;;;;;;;;;;;;;;;4996027;28;1214;-89
2021/07/26 07:34:08;;;;;;;;;;;;;;;;;;4959687;28;1191;-91
2021/07/26 07:36:33;;;;;;;;;;;;;;;;;;4985852;28;1612;-89
2021/07/26 07:38:59;;;;;;;;;;;;;;;;;;4965860;28;1966;-89
2021/07/26 07:41:25;;;;;;;;;;;;;;;;;;4970063;28;1524;-89
2021/07/26 07:43:50;;;;;;;;;;;;;;;;;;4982179;28;1588;-89
2021/07/26 07:46:17;;;;;;;;;;;;;;;;;;4987367;28;1990;-90
2021/07/26 07:48:42;;;;;;;;;;;;;;;;;;4986245;28;1566;-92
2021/07/26 07:51:09;;;;;;;;;;;;;;;;;;4989602;28;1603;-90
2021/07/26 07:53:34;;;;;;;;;;;;;;;;;;4985319;28;1522;-89
2021/07/26 07:55:59;;;;;;;;;;;;;;;;;;4984270;28;1567;-90
2021/07/26 07:58:24;;;;;;;;;;;;;;;;;;4983150;28;1910;-90
2021/07/26 08:00:50;;;;;;;;;;;;;;;;;;4986069;28;1362;-90
2021/07/26 08:03:16;;;;;;;;;;;;;;;;;;4984095;28;1300;-90
2021/07/26 08:05:41;;;;;;;;;;;;;;;;;;4984001;28;1576;-91
2021/07/26 08:08:07;;;;;;;;;;;;;;;;;;4987945;28;1173;-91
2021/07/26 08:10:33;;;;;;;;;;;;;;;;;;4986379;28;1668;-91
2021/07/26 08:12:58;;;;;;;;;;;;;;;;;;4985019;28;1041;-91
2021/07/26 08:15:23;;;;;;;;;;;;;;;;;;4988382;28;1171;-91
2021/07/26 08:17:48;;;;;;;;;;;;;;;;;;4993042;28;1918;-91
2021/07/26 08:20:15;;;;;;;;;;;;;;;;;;4985323;28;1592;-90
2021/07/26 08:22:40;;;;;;;;;;;;;;;;;;4983462;28;1134;-91
2021/07/26 08:25:06;;;;;;;;;;;;;;;;;;4984943;28;1501;-91
2021/07/26 08:27:31;;;;;;;;;;;;;;;;;;4970513;28;1393;-91
2021/07/26 08:29:56;;;;;;;;;;;;;;;;;;4986646;28;1235;-89
2021/07/26 08:32:21;;;;;;;;;;;;;;;;;;4982972;28;1297;-89
2021/07/26 08:34:46;;;;;;;;;;;;;;;;;;4988473;28;1529;-87
2021/07/26 08:37:12;;;;;;;;;;;;;;;;;;4983556;28;1922;-89
2021/07/26 08:39:38;;;;;;;;;;;;;;;;;;4980858;28;1298;-88
2021/07/26 08:42:04;;;;;;;;;;;;;;;;;;4980872;28;1513;-88
2021/07/26 08:44:29;;;;;;;;;;;;;;;;;;4984236;28;1170;-88
2021/07/26 08:46:54;;;;;;;;;;;;;;;;;;4979713;28;1285;-88
2021/07/26 08:49:19;;;;;;;;;;;;;;;;;;4982455;28;1455;-89
2021/07/26 08:51:44;;;;;;;;;;;;;;;;;;4981190;28;1354;-90
2021/07/26 08:54:10;;;;;;;;;;;;;;;;;;4987465;28;1141;-89
2021/07/26 08:56:35;;;;;;;;;;;;;;;;;;4984342;28;1519;-88
2021/07/26 08:59:00;;;;;;;;;;;;;;;;;;4985545;28;2417;-90
2021/07/26 09:01:25;;;;;;;;;;;;;;;;;;4985195;28;1304;-89
2021/07/26 09:03:52;;;;;;;;;;;;;;;;;;4987797;28;1206;-91
2021/07/26 09:06:17;;;;;;;;;;;;;;;;;;4972434;28;1622;-91
2021/07/26 09:08:42;;;;;;;;;;;;;;;;;;4986337;28;1110;-91
2021/07/26 09:11:08;;;;;;;;;;;;;;;;;;4981428;28;1677;-92
2021/07/26 09:13:34;;;;;;;;;;;;;;;;;;4970663;28;1374;-90
2021/07/26 09:16:12;;;;;;;;;;;;;;;;;;4978589;28;1513;-91
2021/07/26 09:18:37;;;;;;;;;;;;;;;;;;4971963;28;1952;-91
2021/07/26 09:21:02;;;;;;;;;;;;;;;;;;4979589;28;1300;-91
2021/07/26 09:23:27;;;;;;;;;;;;;;;;;;4980944;28;1545;-90
2021/07/26 09:25:52;;;;;;;;;;;;;;;;;;4983290;28;1609;-91
2021/07/26 09:28:20;;;;;;;;;;;;;;;;;;4984014;28;1364;-92
2021/07/26 09:30:46;;;;;;;;;;;;;;;;;;4984694;28;1298;-93
2021/07/26 09:33:18;;;;;;;;;;;;;;;;;;4983327;28;1212;-91
2021/07/26 09:35:44;;;;;;;;;;;;;;;;;;4987681;28;1524;-91
2021/07/26 09:38:09;;;;;;;;;;;;;;;;;;4981273;28;1898;-91
2021/07/26 09:40:35;;;;;;;;;;;;;;;;;;4988217;28;1565;-91
2021/07/26 09:43:16;;;;;;;;;;;;;;;;;;4984276;28;1138;-91
2021/07/26 09:45:42;;;;;;;;;;;;;;;;;;4974050;28;1375;-90
2021/07/26 09:48:09;;;;;;;;;;;;;;;;;;4983717;28;1158;-91
2021/07/26 09:50:34;;;;;;;;;;;;;;;;;;4990158;28;1594;-91
2021/07/26 09:53:15;;;;;;;;;;;;;;;;;;4974771;28;1178;-91
2021/07/26 09:55:44;;;;;;;;;;;;;;;;;;4987782;28;1522;-91
2021/07/26 09:58:15;;;;;;;;;;;;;;;;;;4974508;28;1907;-91
2021/07/26 10:00:40;;;;;;;;;;;;;;;;;;4990773;28;1621;-91
2021/07/26 10:03:07;;;;;;;;;;;;;;;;;;4975457;28;1130;-91
2021/07/26 10:05:33;;;;;;;;;;;;;;;;;;4990371;28;1303;-91
2021/07/26 10:08:00;;;;;;;;;;;;;;;;;;4974660;28;1598;-91
2021/07/26 10:10:25;;;;;;;;;;;;;;;;;;4982768;28;1624;-91
2021/07/26 10:12:51;;;;;;;;;;;;;;;;;;4990251;28;1162;-92
2021/07/26 10:15:16;;;;;;;;;;;;;;;;;;4982529;28;1126;-90
2021/07/26 10:17:42;;;;;;;;;;;;;;;;;;4984369;28;1906;-91
2021/07/26 10:20:07;;;;;;;;;;;;;;;;;;4976088;28;1355;-90
2021/07/26 10:22:32;;;;;;;;;;;;;;;;;;4983702;28;1375;-92
2021/07/26 10:25:05;;;;;;;;;;;;;;;;;;4973806;28;1676;-91
2021/07/26 10:27:31;;;;;;;;;;;;;;;;;;4980548;28;1551;-91
2021/07/26 10:29:57;;;;;;;;;;;;;;;;;;4989316;28;1295;-91
2021/07/26 10:32:35;;;;;;;;;;;;;;;;;;4987145;28;1052;-91
2021/07/26 10:35:04;;;;;;;;;;;;;;;;;;4985582;28;1284;-91
2021/07/26 10:37:41;;;;;;;;;;;;;;;;;;4986761;28;1906;-91
2021/07/26 10:40:23;;;;;;;;;;;;;;;;;;4982447;28;1544;-91
2021/07/26 10:42:48;;;;;;;;;;;;;;;;;;4975784;28;1119;-90
2021/07/26 10:45:36;;;;;;;;;;;;;;;;;;4987667;28;1332;-91
2021/07/26 10:48:20;;;;;;;;;;;;;;;;;;4991392;28;1204;-90
2021/07/26 10:50:49;;;;;;;;;;;;;;;;;;4985015;28;1588;-91
2021/07/26 10:53:37;;;;;;;;;;;;;;;;;;4990196;28;1158;-91
2021/07/26 10:56:09;;;;;;;;;;;;;;;;;;4972061;28;1649;-91
2021/07/26 10:58:40;;;;;;;;;;;;;;;;;;4983517;28;1923;-91
2021/07/26 11:01:21;;;;;;;;;;;;;;;;;;4982333;28;1360;-91
2021/07/26 11:03:47;;;;;;;;;;;;;;;;;;4983363;28;1644;-92
2021/07/26 11:06:30;;;;;;;;;;;;;;;;;;4984406;28;1397;-90
2021/07/26 11:08:56;;;;;;;;;;;;;;;;;;4984608;28;1078;-92
2021/07/26 11:11:39;;;;;;;;;;;;;;;;;;4981673;28;1623;-91
2021/07/26 11:14:09;;;;;;;;;;;;;;;;;;4986041;28;1538;-90
2021/07/26 11:16:46;;;;;;;;;;;;;;;;;;4984072;28;1201;-91
2021/07/26 11:19:30;;;;;;;;;;;;;;;;;;4984743;28;1966;-90
2021/07/26 11:21:55;;;;;;;;;;;;;;;;;;4985177;28;1675;-90
2021/07/26 11:24:49;;;;;;;;;;;;;;;;;;4987553;28;1178;-90
2021/07/26 11:27:20;;;;;;;;;;;;;;;;;;4989157;28;1726;-90
2021/07/26 11:29:49;;;;;;;;;;;;;;;;;;4980806;28;1268;-90
2021/07/26 11:32:19;;;;;;;;;;;;;;;;;;4988220;28;1245;-91
2021/07/26 11:34:44;;;;;;;;;;;;;;;;;;4985062;28;1230;-91
2021/07/26 11:37:13;;;;;;;;;;;;;;;;;;4970435;28;1911;-90
2021/07/26 11:39:44;;;;;;;;;;;;;;;;;;4988679;28;1292;-90
2021/07/26 11:42:10;;;;;;;;;;;;;;;;;;4990342;28;1799;-89
2021/07/26 11:44:35;;;;;;;;;;;;;;;;;;4989442;28;1221;-89
2021/07/26 11:47:01;;;;;;;;;;;;;;;;;;4974916;28;1177;-88
2021/07/26 11:49:26;;;;;;;;;;;;;;;;;;4983210;28;1592;-89
2021/07/26 11:52:03;;;;;;;;;;;;;;;;;;4988566;28;1523;-90
2021/07/26 11:54:29;;;;;;;;;;;;;;;;;;4986257;28;1091;-90
2021/07/26 11:56:59;;;;;;;;;;;;;;;;;;4987586;28;1695;-91
2021/07/26 11:59:24;;;;;;;;;;;;;;;;;;4987304;28;1898;-93
2021/07/26 12:01:59;;;;;;;;;;;;;;;;;;4979485;28;1491;-91
2021/07/26 12:04:24;;;;;;;;;;;;;;;;;;4983028;28;1110;-91
2021/07/26 12:06:56;;;;;;;;;;;;;;;;;;4990514;28;1416;-90
2021/07/26 12:09:21;;;;;;;;;;;;;;;;;;4986326;28;1131;-90
2021/07/26 12:11:46;;;;;;;;;;;;;;;;;;4982227;28;1834;-91
2021/07/26 12:14:29;;;;;;;;;;;;;;;;;;4971125;28;1413;-90
2021/07/26 12:16:58;;;;;;;;;;;;;;;;;;4982314;28;1047;-92
2021/07/26 12:19:23;;;;;;;;;;;;;;;;;;4981381;28;1979;-90
2021/07/26 12:21:48;;;;;;;;;;;;;;;;;;4981415;28;1396;-92
2021/07/26 12:24:13;;;;;;;;;;;;;;;;;;4979663;28;1177;-91
2021/07/26 12:26:41;;;;;;;;;;;;;;;;;;4982947;28;1557;-90
2021/07/26 12:29:09;;;;;;;;;;;;;;;;;;4983964;28;1003;-91
2021/07/26 12:31:35;;;;;;;;;;;;;;;;;;4979400;28;1219;-91
2021/07/26 12:34:13;;;;;;;;;;;;;;;;;;4981966;28;1249;-91
2021/07/26 12:36:38;;;;;;;;;;;;;;;;;;4986918;28;1640;-92
2021/07/26 12:39:04;;;;;;;;;;;;;;;;;;4985950;28;1894;-90
2021/07/26 12:41:30;;;;;;;;;;;;;;;;;;4988193;28;1557;-90
2021/07/26 12:44:10;;;;;;;;;;;;;;;;;;4991712;28;1211;-91
2021/07/26 12:46:36;;;;;;;;;;;;;;;;;;4992787;28;1064;-91
2021/07/26 12:49:01;;;;;;;;;;;;;;;;;;4988743;28;1568;-90
2021/07/26 12:51:26;;;;;;;;;;;;;;;;;;4989088;28;1279;-90
2021/07/26 12:53:52;;;;;;;;;;;;;;;;;;4974701;28;1332;-90
2021/07/26 12:56:17;;;;;;;;;;;;;;;;;;4972970;28;1523;-91
2021/07/26 12:58:42;;;;;;;;;;;;;;;;;;4982181;28;1957;-89
2021/07/26 13:01:07;;;;;;;;;;;;;;;;;;4982112;28;1338;-89
2021/07/26 13:03:32;;;;;;;;;;;;;;;;;;4972131;28;1555;-91
2021/07/26 13:05:57;;;;;;;;;;;;;;;;;;4969610;28;1585;-89
2021/07/26 13:08:23;;;;;;;;;;;;;;;;;;4982701;28;1563;-90
2021/07/26 13:10:48;;;;;;;;;;;;;;;;;;4980645;28;1600;-90
2021/07/26 13:13:14;;;;;;;;;;;;;;;;;;4982894;28;1423;-92
2021/07/26 13:15:40;;;;;;;;;;;;;;;;;;4988170;28;1071;-89
2021/07/26 13:18:06;;;;;;;;;;;;;;;;;;4986052;28;1919;-91
2021/07/26 13:20:31;;;;;;;;;;;;;;;;;;4982818;28;1565;-90
2021/07/26 13:22:56;;;;;;;;;;;;;;;;;;4978779;28;1403;-93
2021/07/26 13:25:22;;;;;;;;;;;;;;;;;;4983965;28;1710;-90
2021/07/26 13:27:47;;;;;;;;;;;;;;;;;;4979243;28;1178;-91
2021/07/26 13:30:12;;;;;;;;;;;;;;;;;;4979237;28;1328;-90
2021/07/26 13:32:37;;;;;;;;;;;;;;;;;;4972551;28;1272;-90
2021/07/26 13:35:03;;;;;;;;;;;;;;;;;;4980017;28;1626;-90
2021/07/26 13:37:28;;;;;;;;;;;;;;;;;;4981225;28;1910;-90
2021/07/26 13:39:53;;;;;;;;;;;;;;;;;;4979588;28;1520;-92
2021/07/26 13:42:18;;;;;;;;;;;;;;;;;;4984753;28;996;-90
2021/07/26 13:44:44;;;;;;;;;;;;;;;;;;4982178;28;1209;-91
2021/07/26 13:47:09;;;;;;;;;;;;;;;;;;4986175;28;1115;-90
2021/07/26 13:49:34;;;;;;;;;;;;;;;;;;4979886;28;1606;-91
2021/07/26 13:51:59;;;;;;;;;;;;;;;;;;4980700;28;1348;-90
2021/07/26 13:54:25;;;;;;;;;;;;;;;;;;4980060;28;1130;-91
2021/07/26 13:56:50;;;;;;;;;;;;;;;;;;4986873;28;1544;-90
2021/07/26 13:59:15;;;;;;;;;;;;;;;;;;4982258;28;1902;-91
2021/07/26 14:01:40;;;;;;;;;;;;;;;;;;4980248;28;1401;-90
2021/07/26 14:04:05;;;;;;;;;;;;;;;;;;4986109;28;1477;-90
2021/07/26 14:06:30;;;;;;;;;;;;;;;;;;4983949;28;1253;-90
2021/07/26 14:08:56;;;;;;;;;;;;;;;;;;4987780;28;1018;-91
2021/07/26 14:11:21;;;;;;;;;;;;;;;;;;4967935;28;1778;-89
2021/07/26 14:13:46;;;;;;;;;;;;;;;;;;4983190;28;1162;-92
2021/07/26 14:16:11;;;;;;;;;;;;;;;;;;4980699;28;1540;-89
2021/07/26 14:18:37;;;;;;;;;;;;;;;;;;4986712;28;1910;-92
2021/07/26 14:21:02;;;;;;;;;;;;;;;;;;4974854;28;1307;-90
2021/07/26 14:23:27;;;;;;;;;;;;;;;;;;4982609;28;1521;-90
2021/07/26 14:25:53;;;;;;;;;;;;;;;;;;4983565;28;1569;-90
2021/07/26 14:28:18;;;;;;;;;;;;;;;;;;4987904;28;1256;-89
2021/07/26 14:30:44;;;;;;;;;;;;;;;;;;4990546;28;1238;-90
2021/07/26 14:33:10;;;;;;;;;;;;;;;;;;4980599;28;1214;-90
2021/07/26 14:35:35;;;;;;;;;;;;;;;;;;4989428;28;1642;-90
2021/07/26 14:38:01;;;;;;;;;;;;;;;;;;4982063;28;1902;-89
2021/07/26 14:40:26;;;;;;;;;;;;;;;;;;4985993;28;1613;-89
2021/07/26 14:42:51;;;;;;;;;;;;;;;;;;4985334;28;1104;-89
2021/07/26 14:45:17;;;;;;;;;;;;;;;;;;4990541;28;1260;-90
2021/07/26 14:47:42;;;;;;;;;;;;;;;;;;4984184;28;1218;-89
2021/07/26 14:50:07;;;;;;;;;;;;;;;;;;4982957;28;1536;-89
2021/07/26 14:52:32;;;;;;;;;;;;;;;;;;4984152;28;1366;-89
2021/07/26 14:54:58;;;;;;;;;;;;;;;;;;4985521;28;1540;-90
2021/07/26 14:57:24;;;;;;;;;;;;;;;;;;4982575;28;1951;-89
2021/07/26 14:59:49;;;;;;;;;;;;;;;;;;4985920;28;1548;-89
2021/07/26 15:02:14;;;;;;;;;;;;;;;;;;4972809;28;1031;-89
2021/07/26 15:04:39;;;;;;;;;;;;;;;;;;4981700;28;1103;-88
2021/07/26 15:07:04;;;;;;;;;;;;;;;;;;4985272;28;1316;-88
2021/07/26 15:09:30;;;;;;;;;;;;;;;;;;4983703;28;1679;-89
2021/07/26 15:11:55;;;;;;;;;;;;;;;;;;4982749;28;1688;-88
2021/07/26 15:14:20;;;;;;;;;;;;;;;;;;4987499;28;1364;-88
2021/07/26 15:16:45;;;;;;;;;;;;;;;;;;4988565;28;1324;-89
2021/07/26 15:19:10;;;;;;;;;;;;;;;;;;4987397;28;1910;-89
2021/07/26 15:21:35;;;;;;;;;;;;;;;;;;4984799;28;1838;-89
2021/07/26 15:24:01;;;;;;;;;;;;;;;;;;4956225;28;1206;-89
2021/07/26 15:26:26;;;;;;;;;;;;;;;;;;4981399;28;1501;-89
2021/07/26 15:28:51;;;;;;;;;;;;;;;;;;4971687;28;1313;-90
2021/07/26 15:31:16;;;;;;;;;;;;;;;;;;4983987;28;1277;-91
2021/07/26 15:33:42;;;;;;;;;;;;;;;;;;4980283;28;1102;-89
2021/07/26 15:36:07;;;;;;;;;;;;;;;;;;4984086;28;1493;-89
2021/07/26 15:38:33;;;;;;;;;;;;;;;;;;4981383;28;1906;-89
2021/07/26 15:40:58;;;;;;;;;;;;;;;;;;4986292;28;1529;-89
2021/07/26 15:43:23;;;;;;;;;;;;;;;;;;4991189;28;1616;-90
2021/07/26 15:45:48;;;;;;;;;;;;;;;;;;4985870;28;1324;-90
2021/07/26 15:48:14;;;;;;;;;;;;;;;;;;4983982;28;1596;-89
2021/07/26 15:50:39;;;;;;;;;;;;;;;;;;4981909;28;1328;-90
2021/07/26 15:53:05;;;;;;;;;;;;;;;;;;4980374;28;1648;-90
2021/07/26 15:55:30;;;;;;;;;;;;;;;;;;4984859;28;1556;-91
2021/07/26 15:57:56;;;;;;;;;;;;;;;;;;4972372;28;1914;-91
2021/07/26 16:00:21;;;;;;;;;;;;;;;;;;4983740;28;1275;-90
2021/07/26 16:02:46;;;;;;;;;;;;;;;;;;4981444;28;1312;-90
2021/07/26 16:05:13;;;;;;;;;;;;;;;;;;4982599;28;1565;-89
2021/07/26 16:07:38;;;;;;;;;;;;;;;;;;4981977;28;1386;-90
2021/07/26 16:10:03;;;;;;;;;;;;;;;;;;4983412;28;1656;-90
2021/07/26 16:12:28;;;;;;;;;;;;;;;;;;4983560;28;1265;-89
2021/07/26 16:14:54;;;;;;;;;;;;;;;;;;4988490;28;1128;-90
2021/07/26 16:17:19;;;;;;;;;;;;;;;;;;4987684;28;1300;-90
2021/07/26 16:19:44;;;;;;;;;;;;;;;;;;4981511;28;1899;-90
2021/07/26 16:22:10;;;;;;;;;;;;;;;;;;4982050;28;1179;-89
2021/07/26 16:24:35;;;;;;;;;;;;;;;;;;4986736;28;1110;-89
2021/07/26 16:27:00;;;;;;;;;;;;;;;;;;4986937;28;1580;-90
2021/07/26 16:29:26;;;;;;;;;;;;;;;;;;4982610;28;1683;-89
2021/07/26 16:31:51;;;;;;;;;;;;;;;;;;4983719;28;1355;-90
2021/07/26 16:34:16;;;;;;;;;;;;;;;;;;4979196;28;1004;-89
2021/07/26 16:36:41;;;;;;;;;;;;;;;;;;4984743;28;1541;-90
2021/07/26 16:39:06;;;;;;;;;;;;;;;;;;4980637;28;1906;-91
2021/07/26 16:41:32;;;;;;;;;;;;;;;;;;4981561;28;1568;-90
2021/07/26 16:43:57;;;;;;;;;;;;;;;;;;4987971;28;1318;-91
2021/07/26 16:46:22;;;;;;;;;;;;;;;;;;4982397;28;1178;-89
2021/07/26 16:48:47;;;;;;;;;;;;;;;;;;4980997;28;1106;-91
2021/07/26 16:51:12;;;;;;;;;;;;;;;;;;4980931;28;1596;-89
2021/07/26 16:53:38;;;;;;;;;;;;;;;;;;4979988;28;1162;-90
2021/07/26 16:56:03;;;;;;;;;;;;;;;;;;4979060;28;1601;-90
2021/07/26 16:58:28;;;;;;;;;;;;;;;;;;4983855;28;1898;-90